Аэропорт: Остафьево. Москва

ICAO: UUMO

METAR:
2021-07-28 12:30:00
UUMO 281230Z 13005MPS 9999 -RA NSC 20/18 Q1014 R07/190055 NOSIG RMK QFE746/0994
METAR:
Информация по данной станции не доступна